A- A+ FrançaisEnglishEspañol中国

le plus proche LFBT Tarbes-Lourdes-PyrénéesLFKS SolenzaraLFBO Toulouse-BlagnacLFKG Ghisonaccia Alzitone

manche à air

La météo aéronautique pour les pilotes, la préparation du vol avec les METAR (METeorological Aerodrome Report, message d'observation des conditions météorologiques pour l'aviation) et Les TAF (Terminal Aerodrome Forecast : message de prévision à court terme des conditions météorologiques pour l'aviation). Et les autres ressources comme les VAC (Visual Approch Chart) et les NOTAM (Notice To Airman) pour préprer les vols.

Aéroport Wick (Royaume-Uni) / OACI EGPC/ IATA WIC

L'altitude de l'aéroport Wick est de 38 m=125 ft. Il est situé à proximité de Wick (Royaume-Uni). La météo générale à 5 jours est disponible pour Orphir situé à 53.3 km.

METAR de l'aéroport Wick - EGPC

EGPC 151420Z 02006KT 9999 VCSH SCT024 07/04 Q1018

Décodage du METAR de l'aéroport Wick (GB)

METAR émis par EGPC le vendredi 15 novembre 2019 à 14:20 heure TU. Attention ce METAR est obsolète car il a été émis il y a 21 heure et 38 minutes.

La visibilité est de supérieure à 10 km=supérieure à 6.2 sm.

La température est de 7°C=45 °F et le point rosée est de 4°C=39 °F . Ce qui correspond à 81% d'humidité relative.

Le QNH est de 1018 hPa=30.06 inHg

Vent de 6 kt=11 km/h, orienté à 20°.

Nuages : Nuages épars à 2400 ft=730 mètres.

VCSH

TAF de l'aéroport Wick - EGPC

EGPC 151102Z 1512/1521 04009KT 9999 SCT025 PROB40 TEMPO 1512/1521 6000 SHRA BKN014

EGPC 151102Z 1512/1521 04009KT 9999 nuages épars à 025 probabilité de 40% d'avoir temporairement 1512/1521 6000 SHRA couverture nuageuse fragmentée à 014

Aéroport à proximité de Wick

Météo générale à 5 jours à Orphir (53.3 km)EGPA Aéroport Kirkwall (57 km)EGER Aéroport Stronsay (82 km)EGED Aéroport Eday (83 km)EGQS Aéroport Lossiemouth (85 km)EGES Aéroport Sanday (93 km)EGQK Aéroport Kinloss (94 km)

Vue aérienne de l'aéroport Wick

NOTAM de l'aéroport Wick

Les NOTAM sont fournis sans aucune garantie de leur actualité. Le pilote est le seul responsable de la vérification de sa validité avant de l'utiliser opérationnellement pour préparer un vol ou l'utiliser lors de sa navigation.

Pas de NOTAM

Sources des données